Time;durP1;ratioP1;P1;durP2;ratioP2;P2;SDS_P1;SDS_P2;PMS_P1;PMS_P2;Temp;Humidity;BMP_temperature;BMP_pressure;BME280_temperature;BME280_humidity;BME280_pressure;Samples;Min_cycle;Max_cycle;Signal;HPM_P1;HPM_P2
2021/09/17 00:00:01;;;;;;;5.78;3.00;;;23.00;69.60;;;;;;6274086;28;20029;-84
2021/09/17 00:03:04;;;;;;;11.93;3.42;;;23.00;69.70;;;;;;6263759;28;20044;-83
2021/09/17 00:06:05;;;;;;;12.15;3.50;;;23.00;69.70;;;;;;6249760;28;20064;-83
2021/09/17 00:09:06;;;;;;;10.48;3.47;;;23.00;69.70;;;;;;6232268;28;20040;-83
2021/09/17 00:12:07;;;;;;;9.32;4.00;;;22.90;69.70;;;;;;6229810;28;20048;-82
2021/09/17 00:15:10;;;;;;;8.77;3.13;;;23.00;69.70;;;;;;6230823;28;20029;-83
2021/09/17 00:18:11;;;;;;;7.18;2.88;;;23.00;69.80;;;;;;6256869;28;20040;-83
2021/09/17 00:21:13;;;;;;;8.77;3.35;;;23.00;69.80;;;;;;6272823;28;20029;-84
2021/09/17 00:24:14;;;;;;;8.05;3.88;;;23.00;69.70;;;;;;6270973;28;20020;-84
2021/09/17 00:27:16;;;;;;;6.68;3.67;;;23.00;69.70;;;;;;6255416;28;20430;-84
2021/09/17 00:30:16;;;;;;;9.45;3.35;;;23.00;69.70;;;;;;6258213;28;20056;-83
2021/09/17 00:33:17;;;;;;;5.72;3.63;;;23.00;69.70;;;;;;6259431;28;20564;-83
2021/09/17 00:36:19;;;;;;;5.97;3.63;;;23.00;69.80;;;;;;6259347;28;20112;-84
2021/09/17 00:39:21;;;;;;;6.57;3.63;;;23.00;69.80;;;;;;6272069;28;20025;-84
2021/09/17 00:42:22;;;;;;;6.72;3.33;;;23.00;70.00;;;;;;6241699;28;20064;-83
2021/09/17 00:45:23;;;;;;;11.32;4.00;;;22.90;69.90;;;;;;6266205;28;20052;-83
2021/09/17 00:48:24;;;;;;;6.95;3.55;;;22.90;70.00;;;;;;6267784;28;20030;-83
2021/09/17 00:51:26;;;;;;;13.77;4.05;;;22.90;70.00;;;;;;6273156;28;20404;-83
2021/09/17 00:54:28;;;;;;;8.30;3.17;;;22.90;70.00;;;;;;6262592;28;20044;-83
2021/09/17 00:57:30;;;;;;;6.22;3.50;;;22.90;70.10;;;;;;6255672;28;20358;-83
2021/09/17 01:00:31;;;;;;;10.18;3.83;;;22.90;70.20;;;;;;6247723;28;20108;-84
2021/09/17 01:03:32;;;;;;;13.75;4.50;;;22.90;70.20;;;;;;6255809;28;20037;-84
2021/09/17 01:06:35;;;;;;;6.70;3.60;;;22.80;70.20;;;;;;6232892;28;20034;-83
2021/09/17 01:09:38;;;;;;;7.00;3.47;;;22.80;70.30;;;;;;6224544;28;20061;-84
2021/09/17 01:12:40;;;;;;;6.78;3.42;;;22.80;70.40;;;;;;6224079;28;20038;-83
2021/09/17 01:15:41;;;;;;;8.27;3.35;;;22.80;70.50;;;;;;6224444;28;20068;-83
2021/09/17 01:18:42;;;;;;;8.23;3.05;;;22.70;70.70;;;;;;6233220;28;20091;-83
2021/09/17 01:21:43;;;;;;;9.45;3.25;;;22.70;70.60;;;;;;6232274;28;20029;-83
2021/09/17 01:24:44;;;;;;;8.55;3.33;;;22.70;70.50;;;;;;6234739;28;20053;-84
2021/09/17 01:27:48;;;;;;;15.20;3.05;;;22.70;70.50;;;;;;6248675;28;20069;-84
2021/09/17 01:30:49;;;;;;;11.02;3.22;;;22.70;70.50;;;;;;6231250;28;20037;-84
2021/09/17 01:33:50;;;;;;;9.80;3.13;;;22.70;70.40;;;;;;6217880;28;20034;-84
2021/09/17 01:36:52;;;;;;;4.25;2.28;;;22.70;70.40;;;;;;6228558;28;20030;-83
2021/09/17 01:39:53;;;;;;;5.60;2.63;;;22.70;70.40;;;;;;6237297;28;20090;-83
2021/09/17 01:42:54;;;;;;;9.13;2.92;;;22.70;70.40;;;;;;6247909;28;20414;-83
2021/09/17 01:45:55;;;;;;;5.45;2.20;;;22.70;70.30;;;;;;6253400;28;20026;-84
2021/09/17 01:48:56;;;;;;;7.35;2.50;;;22.70;70.20;;;;;;6253406;28;20053;-83
2021/09/17 01:51:59;;;;;;;7.72;2.72;;;22.80;70.30;;;;;;6235683;28;20120;-83
2021/09/17 01:55:01;;;;;;;4.05;2.70;;;22.80;70.10;;;;;;6249708;28;20025;-83
2021/09/17 01:58:05;;;;;;;5.03;2.25;;;22.80;70.00;;;;;;6251684;28;20061;-83
2021/09/17 02:01:06;;;;;;;4.65;2.80;;;22.80;70.00;;;;;;6251988;28;20033;-83
2021/09/17 02:04:09;;;;;;;11.90;2.65;;;22.80;69.90;;;;;;6247792;28;20029;-83
2021/09/17 02:07:10;;;;;;;9.10;2.60;;;22.80;69.70;;;;;;6248501;28;20185;-83
2021/09/17 02:10:12;;;;;;;6.10;2.75;;;22.80;69.70;;;;;;6244801;28;20164;-83
2021/09/17 02:13:19;;;;;;;4.90;3.03;;;22.80;69.60;;;;;;6272663;28;20350;-83
2021/09/17 02:16:20;;;;;;;4.95;2.72;;;22.80;69.50;;;;;;6250477;28;20033;-84
2021/09/17 02:19:21;;;;;;;9.90;3.40;;;22.80;69.40;;;;;;6267305;28;20354;-82
2021/09/17 02:22:23;;;;;;;10.57;3.83;;;22.80;69.20;;;;;;6251764;28;20034;-84
2021/09/17 02:25:24;;;;;;;13.90;3.67;;;22.80;69.20;;;;;;6234185;28;20060;-83
2021/09/17 02:28:25;;;;;;;8.23;2.55;;;22.80;69.20;;;;;;6235103;28;20139;-83
2021/09/17 02:31:26;;;;;;;6.65;3.10;;;22.80;69.20;;;;;;6251153;28;20041;-82
2021/09/17 02:34:26;;;;;;;6.05;2.83;;;22.80;69.30;;;;;;6248534;28;20037;-83
2021/09/17 02:37:27;;;;;;;5.53;3.00;;;22.80;69.20;;;;;;6276261;28;20033;-83
2021/09/17 02:40:30;;;;;;;8.23;2.47;;;22.80;69.20;;;;;;6268251;28;20029;-82
2021/09/17 02:43:33;;;;;;;10.70;2.70;;;22.80;69.20;;;;;;6252749;28;20427;-82
2021/09/17 02:46:34;;;;;;;4.10;2.50;;;22.70;69.10;;;;;;6251667;28;20056;-83
2021/09/17 02:49:36;;;;;;;10.40;2.83;;;22.80;69.10;;;;;;6262646;28;20033;-83
2021/09/17 02:52:37;;;;;;;6.07;2.92;;;22.70;69.10;;;;;;6253455;28;20422;-82
2021/09/17 02:55:38;;;;;;;6.35;3.33;;;22.70;69.10;;;;;;6234743;28;20048;-83
2021/09/17 02:58:41;;;;;;;7.22;2.78;;;22.70;69.20;;;;;;6269092;28;20036;-83
2021/09/17 03:01:42;;;;;;;7.78;3.50;;;22.70;69.20;;;;;;6265500;28;20396;-83
2021/09/17 03:04:44;;;;;;;11.90;3.50;;;22.70;69.20;;;;;;6266967;28;20060;-84
2021/09/17 03:07:46;;;;;;;9.07;3.58;;;22.80;69.10;;;;;;6258608;28;20037;-84
2021/09/17 03:10:48;;;;;;;9.73;3.47;;;22.70;69.90;;;;;;6274432;28;20039;-84
2021/09/17 03:13:50;;;;;;;8.52;3.97;;;22.70;69.10;;;;;;6257144;28;20126;-84
2021/09/17 03:16:52;;;;;;;15.57;3.63;;;22.70;69.10;;;;;;6258182;28;20043;-84
2021/09/17 03:19:53;;;;;;;8.18;3.58;;;22.70;69.10;;;;;;6273181;28;20076;-83
2021/09/17 03:22:54;;;;;;;5.25;3.35;;;22.70;69.20;;;;;;6274260;28;20464;-84
2021/09/17 03:25:55;;;;;;;6.35;3.35;;;22.60;69.00;;;;;;6266680;28;20025;-84
2021/09/17 03:28:56;;;;;;;8.20;2.47;;;22.60;69.10;;;;;;6273720;28;20087;-84
2021/09/17 03:31:58;;;;;;;11.02;3.33;;;22.60;69.20;;;;;;6273814;28;20045;-84
2021/09/17 03:35:00;;;;;;;5.22;2.80;;;22.50;69.20;;;;;;6267467;28;20039;-84
2021/09/17 03:38:03;;;;;;;11.52;3.15;;;22.50;69.20;;;;;;6275172;28;20040;-84
2021/09/17 03:41:06;;;;;;;12.30;3.58;;;22.50;69.30;;;;;;6274085;28;20394;-84
2021/09/17 03:44:09;;;;;;;10.95;3.83;;;22.50;69.40;;;;;;6257819;28;20033;-83
2021/09/17 03:47:12;;;;;;;13.50;3.55;;;22.50;69.50;;;;;;6267991;28;20052;-84
2021/09/17 03:50:14;;;;;;;9.23;3.05;;;22.50;69.40;;;;;;6259686;28;20036;-83
2021/09/17 03:53:18;;;;;;;8.55;3.33;;;22.40;69.40;;;;;;6274667;28;20025;-83
2021/09/17 03:56:21;;;;;;;10.13;3.80;;;22.40;69.40;;;;;;6256614;28;20035;-84
2021/09/17 03:59:23;;;;;;;7.38;4.03;;;22.40;69.40;;;;;;6271830;28;20040;-84
2021/09/17 04:02:25;;;;;;;17.15;4.07;;;22.40;69.50;;;;;;6251805;28;20018;-82
2021/09/17 04:05:26;;;;;;;6.90;3.70;;;22.50;69.60;;;;;;6249736;28;20431;-84
2021/09/17 04:08:27;;;;;;;9.05;3.40;;;22.50;69.40;;;;;;6256002;28;20413;-83
2021/09/17 04:11:28;;;;;;;9.48;3.80;;;22.50;69.40;;;;;;6273590;28;20170;-83
2021/09/17 04:14:29;;;;;;;12.43;3.65;;;22.50;69.40;;;;;;6270834;28;20029;-83
2021/09/17 04:17:31;;;;;;;19.25;3.53;;;22.80;69.40;;;;;;6233137;28;20091;-84
2021/09/17 04:20:32;;;;;;;11.38;3.50;;;22.50;69.20;;;;;;6260449;28;20098;-84
2021/09/17 04:23:34;;;;;;;6.65;3.22;;;22.50;69.30;;;;;;6273072;28;20091;-83
2021/09/17 04:26:35;;;;;;;9.25;3.30;;;22.50;69.20;;;;;;6264938;28;20090;-84
2021/09/17 04:29:36;;;;;;;8.90;3.47;;;22.50;69.10;;;;;;6236465;28;20037;-83
2021/09/17 04:32:37;;;;;;;10.88;3.72;;;22.50;69.20;;;;;;6254065;28;20041;-82
2021/09/17 04:35:38;;;;;;;10.73;4.03;;;21.70;69.00;;;;;;6269470;28;20034;-82
2021/09/17 04:38:39;;;;;;;6.47;3.45;;;22.30;69.40;;;;;;6251922;28;20037;-83
2021/09/17 04:41:40;;;;;;;10.05;3.97;;;22.30;69.60;;;;;;6258930;28;20116;-83
2021/09/17 04:44:41;;;;;;;8.73;3.53;;;22.20;69.70;;;;;;6268212;28;20033;-83
2021/09/17 04:47:43;;;;;;;8.98;5.30;;;22.20;69.90;;;;;;6264943;28;20026;-83
2021/09/17 04:50:44;;;;;;;6.07;3.85;;;22.20;70.00;;;;;;6280236;28;20083;-83
2021/09/17 04:53:45;;;;;;;6.78;3.40;;;22.20;70.00;;;;;;6272445;28;20036;-83
2021/09/17 04:56:46;;;;;;;15.85;3.70;;;22.20;69.90;;;;;;6274676;28;20021;-83
2021/09/17 04:59:47;;;;;;;8.00;3.40;;;22.20;69.80;;;;;;6244533;28;20098;-84
2021/09/17 05:02:48;;;;;;;7.10;3.22;;;22.10;69.70;;;;;;6253610;28;20098;-83
2021/09/17 05:05:49;;;;;;;5.80;3.35;;;22.10;69.80;;;;;;6274795;28;20029;-84
2021/09/17 05:08:50;;;;;;;7.57;3.50;;;22.10;69.60;;;;;;6272018;28;20029;-85
2021/09/17 05:11:51;;;;;;;6.35;3.30;;;22.00;69.40;;;;;;6268411;28;20060;-86
2021/09/17 05:14:52;;;;;;;10.05;3.72;;;22.10;69.40;;;;;;6272727;28;20040;-84
2021/09/17 05:17:53;;;;;;;9.73;3.33;;;22.00;69.30;;;;;;6254516;28;20074;-82
2021/09/17 05:20:55;;;;;;;4.88;2.60;;;22.00;69.30;;;;;;6276651;28;20024;-83
2021/09/17 05:23:56;;;;;;;7.57;3.80;;;22.00;69.20;;;;;;6277585;28;20041;-83
2021/09/17 05:26:57;;;;;;;7.95;3.75;;;22.00;69.20;;;;;;6264869;28;20033;-80
2021/09/17 05:29:59;;;;;;;6.93;3.28;;;22.00;69.20;;;;;;6254138;28;20079;-90
2021/09/17 05:33:01;;;;;;;10.63;3.63;;;22.00;69.30;;;;;;6255403;28;20324;-92
2021/09/17 05:36:06;;;;;;;7.68;3.20;;;22.00;69.80;;;;;;6256378;28;20055;-90
2021/09/17 05:39:07;;;;;;;12.50;4.28;;;22.00;70.20;;;;;;6237278;28;20029;-92
2021/09/17 05:42:08;;;;;;;11.32;4.32;;;21.90;70.20;;;;;;6253683;28;20111;-88
2021/09/17 05:45:11;;;;;;;6.10;4.15;;;22.00;69.90;;;;;;6250157;28;20040;-89
2021/09/17 05:48:12;;;;;;;9.95;3.72;;;21.90;69.60;;;;;;6268347;28;20021;-90
2021/09/17 05:51:13;;;;;;;8.80;3.95;;;22.10;69.90;;;;;;6279018;28;20083;-89
2021/09/17 05:54:14;;;;;;;8.35;3.85;;;21.90;69.80;;;;;;6277836;28;20501;-88
2021/09/17 05:57:15;;;;;;;13.00;4.47;;;21.90;70.40;;;;;;6247852;28;20025;-86
2021/09/17 06:00:17;;;;;;;6.95;3.65;;;21.80;70.00;;;;;;6260312;28;20097;-91
2021/09/17 06:03:18;;;;;;;8.75;3.70;;;22.90;71.10;;;;;;6249618;28;20494;-87
2021/09/17 06:06:20;;;;;;;8.10;4.05;;;21.90;70.30;;;;;;6251930;28;20056;-81
2021/09/17 06:09:21;;;;;;;10.20;3.70;;;21.80;69.40;;;;;;6252167;28;20067;-81
2021/09/17 06:12:23;;;;;;;6.35;3.58;;;21.80;69.20;;;;;;6250941;28;20037;-81
2021/09/17 06:15:24;;;;;;;14.85;3.47;;;21.80;69.20;;;;;;6258522;28;20048;-81
2021/09/17 06:18:25;;;;;;;6.78;3.33;;;21.70;69.00;;;;;;6272634;28;20029;-81
2021/09/17 06:21:26;;;;;;;9.10;3.85;;;21.80;69.00;;;;;;6251075;28;20037;-82
2021/09/17 06:24:27;;;;;;;9.23;4.28;;;21.90;68.80;;;;;;6258589;28;20075;-82
2021/09/17 06:27:28;;;;;;;6.50;3.67;;;21.90;68.70;;;;;;6274422;28;20028;-82
2021/09/17 06:30:29;;;;;;;6.75;3.65;;;21.90;68.60;;;;;;6276232;28;20468;-80
2021/09/17 06:33:31;;;;;;;7.13;3.95;;;21.90;68.60;;;;;;6239010;28;20054;-82
2021/09/17 06:36:33;;;;;;;12.63;5.20;;;22.00;68.70;;;;;;6226851;28;20032;-81
2021/09/17 06:39:34;;;;;;;8.77;4.40;;;21.90;68.50;;;;;;6227750;28;20167;-81
2021/09/17 06:42:35;;;;;;;8.00;3.78;;;22.00;68.40;;;;;;6226497;28;20030;-81
2021/09/17 06:45:36;;;;;;;8.00;4.13;;;22.10;68.40;;;;;;6236746;28;20026;-81
2021/09/17 06:48:36;;;;;;;17.02;4.53;;;22.10;68.20;;;;;;6230199;28;20115;-82
2021/09/17 06:51:37;;;;;;;13.15;4.28;;;22.10;68.00;;;;;;6257079;28;20036;-81
2021/09/17 06:54:38;;;;;;;10.52;4.75;;;22.20;68.00;;;;;;6276230;28;20029;-81
2021/09/17 06:57:45;;;;;;;9.20;4.32;;;22.20;67.80;;;;;;6274488;28;20032;-81
2021/09/17 07:00:46;;;;;;;9.02;4.20;;;22.20;67.60;;;;;;6272887;28;20366;-80
2021/09/17 07:03:47;;;;;;;10.98;4.22;;;22.30;67.50;;;;;;6251795;28;20102;-80
2021/09/17 07:06:48;;;;;;;10.65;4.60;;;22.30;67.60;;;;;;6259986;28;20033;-80
2021/09/17 07:09:49;;;;;;;7.95;4.40;;;22.30;67.50;;;;;;6273917;28;20406;-81
2021/09/17 07:12:50;;;;;;;13.27;5.78;;;22.40;67.60;;;;;;6269511;28;20085;-81
2021/09/17 07:15:51;;;;;;;13.05;5.18;;;22.40;67.40;;;;;;6274208;28;20024;-81
2021/09/17 07:18:52;;;;;;;11.18;5.20;;;22.50;67.40;;;;;;6266184;28;20025;-81
2021/09/17 07:21:53;;;;;;;11.82;5.78;;;22.50;67.50;;;;;;6257884;28;20105;-81
2021/09/17 07:24:54;;;;;;;13.20;5.97;;;22.60;67.50;;;;;;6260913;28;20029;-81
2021/09/17 07:27:56;;;;;;;12.10;6.10;;;22.60;67.50;;;;;;6254476;28;20085;-81
2021/09/17 07:30:57;;;;;;;17.60;6.55;;;22.70;67.40;;;;;;6273490;28;20051;-81
2021/09/17 07:33:58;;;;;;;13.00;6.85;;;22.80;67.30;;;;;;6261375;28;20114;-82
2021/09/17 07:36:59;;;;;;;12.18;6.18;;;22.90;67.20;;;;;;6250620;28;20041;-81
2021/09/17 07:40:00;;;;;;;14.00;6.65;;;23.00;67.00;;;;;;6257509;28;20353;-81
2021/09/17 07:43:01;;;;;;;17.63;7.03;;;23.00;67.00;;;;;;6257065;28;20034;-81
2021/09/17 07:46:02;;;;;;;14.65;6.00;;;23.10;67.00;;;;;;6251613;28;20508;-81
2021/09/17 07:49:03;;;;;;;13.82;5.75;;;23.10;66.80;;;;;;6273510;28;20057;-80
2021/09/17 07:52:05;;;;;;;11.90;5.65;;;23.20;66.60;;;;;;6273603;28;20354;-81
2021/09/17 07:55:07;;;;;;;17.08;8.45;;;23.30;66.50;;;;;;6271917;28;20048;-82
2021/09/17 07:58:08;;;;;;;12.98;5.93;;;23.30;66.20;;;;;;6274065;28;20113;-81
2021/09/17 08:01:09;;;;;;;12.82;5.60;;;23.30;66.10;;;;;;6256391;28;20039;-83
2021/09/17 08:04:10;;;;;;;16.15;5.78;;;23.40;65.90;;;;;;6265906;28;20044;-82
2021/09/17 08:07:11;;;;;;;14.23;6.13;;;22.90;65.30;;;;;;6256712;28;20028;-82
2021/09/17 08:10:12;;;;;;;8.07;4.97;;;23.60;65.60;;;;;;6248909;28;20434;-83
2021/09/17 08:13:14;;;;;;;10.82;5.10;;;23.70;65.30;;;;;;6267627;28;20075;-83
2021/09/17 08:16:16;;;;;;;8.68;4.93;;;23.70;65.10;;;;;;6284518;28;20033;-83
2021/09/17 08:19:17;;;;;;;11.68;4.68;;;23.80;64.90;;;;;;6275187;28;20029;-82
2021/09/17 08:22:19;;;;;;;11.65;4.97;;;23.80;64.80;;;;;;6264931;28;20029;-82
2021/09/17 08:25:20;;;;;;;9.68;4.55;;;23.80;64.70;;;;;;6260343;28;20039;-81
2021/09/17 08:28:23;;;;;;;11.38;4.32;;;23.80;64.70;;;;;;6269657;28;20049;-81
2021/09/17 08:31:24;;;;;;;10.20;4.50;;;23.80;64.50;;;;;;6259931;28;20535;-82
2021/09/17 08:34:25;;;;;;;10.55;4.55;;;23.80;64.40;;;;;;6250218;28;20431;-82
2021/09/17 08:37:27;;;;;;;12.35;4.97;;;23.90;64.10;;;;;;6248621;28;20060;-82
2021/09/17 08:40:29;;;;;;;8.48;5.07;;;23.80;63.80;;;;;;6230258;28;20340;-81
2021/09/17 08:43:30;;;;;;;17.08;7.07;;;23.90;63.90;;;;;;6251982;28;20445;-82
2021/09/17 08:46:33;;;;;;;10.27;5.60;;;24.00;63.80;;;;;;6253703;28;20092;-83
2021/09/17 08:49:35;;;;;;;12.82;5.72;;;24.10;63.50;;;;;;6268072;28;20044;-83
2021/09/17 08:52:37;;;;;;;15.13;7.18;;;24.10;62.50;;;;;;6272465;28;20071;-83
2021/09/17 08:55:41;;;;;;;20.88;7.57;;;24.20;62.40;;;;;;6271821;28;20039;-83
2021/09/17 08:58:44;;;;;;;12.05;5.88;;;24.30;62.60;;;;;;6227144;28;20387;-84
2021/09/17 09:01:45;;;;;;;20.90;5.88;;;24.40;62.90;;;;;;6272279;28;20086;-82
2021/09/17 09:04:55;;;;;;;13.32;6.60;;;24.70;62.10;;;;;;6249074;28;20025;-83
2021/09/17 09:07:56;;;;;;;14.65;6.63;;;24.90;61.30;;;;;;6247241;28;20037;-83
2021/09/17 09:10:57;;;;;;;14.05;6.18;;;25.10;60.60;;;;;;6249253;28;20451;-82
2021/09/17 09:14:06;;;;;;;13.23;5.45;;;25.20;59.70;;;;;;6272213;28;20033;-84
2021/09/17 09:17:08;;;;;;;15.35;5.72;;;25.30;59.60;;;;;;6255811;28;20068;-83
2021/09/17 09:20:30;;;;;;;11.90;6.03;;;25.40;59.30;;;;;;6254623;28;20025;-82
2021/09/17 09:23:31;;;;;;;17.08;6.97;;;25.50;59.30;;;;;;6247009;28;20025;-84
2021/09/17 09:26:32;;;;;;;13.02;5.20;;;25.50;59.00;;;;;;6234300;28;20079;-83
2021/09/17 09:29:33;;;;;;;10.30;4.68;;;25.50;59.00;;;;;;6259774;28;20374;-83
2021/09/17 09:32:35;;;;;;;8.98;4.90;;;25.60;58.80;;;;;;6264781;28;20337;-84
2021/09/17 09:35:38;;;;;;;8.77;5.03;;;25.70;58.60;;;;;;6270486;28;20029;-83
2021/09/17 09:38:51;;;;;;;8.43;3.95;;;25.80;57.90;;;;;;6252544;28;20480;-83
2021/09/17 09:41:53;;;;;;;8.20;3.65;;;25.90;57.60;;;;;;6247127;28;20508;-82
2021/09/17 09:45:18;;;;;;;8.57;3.80;;;25.90;57.10;;;;;;6231766;28;20107;-83
2021/09/17 09:48:19;;;;;;;7.88;3.78;;;26.00;57.00;;;;;;6245851;28;20064;-82
2021/09/17 09:51:20;;;;;;;6.80;3.03;;;26.00;56.70;;;;;;6244960;28;20528;-83
2021/09/17 09:54:23;;;;;;;5.50;3.38;;;26.00;56.30;;;;;;6245921;28;20041;-82
2021/09/17 09:57:27;;;;;;;5.72;3.35;;;26.10;56.00;;;;;;6249538;28;20082;-85
2021/09/17 10:00:29;;;;;;;8.13;3.20;;;26.20;55.60;;;;;;6252714;28;20071;-84
2021/09/17 10:03:33;;;;;;;5.50;3.25;;;26.40;55.20;;;;;;6260273;28;20180;-84
2021/09/17 10:06:39;;;;;;;4.45;2.72;;;26.50;54.70;;;;;;6242640;28;20040;-84
2021/09/17 10:09:40;;;;;;;7.63;3.25;;;26.70;54.30;;;;;;6267024;28;20112;-84
2021/09/17 10:12:44;;;;;;;7.65;3.40;;;26.90;54.00;;;;;;6251793;28;20030;-82
2021/09/17 10:15:45;;;;;;;4.80;2.83;;;27.00;53.60;;;;;;6250357;28;20033;-82
2021/09/17 10:18:46;;;;;;;8.20;2.35;;;27.10;53.20;;;;;;6267023;28;20032;-80
2021/09/17 10:22:00;;;;;;;3.65;2.47;;;27.30;52.50;;;;;;6273858;28;20029;-82
2021/09/17 10:25:25;;;;;;;3.97;2.78;;;27.50;51.70;;;;;;6266424;28;20430;-83
2021/09/17 10:28:26;;;;;;;5.63;2.88;;;27.70;51.00;;;;;;6276734;28;20061;-84
2021/09/17 10:31:43;;;;;;;3.70;2.78;;;27.70;50.60;;;;;;6255078;28;20378;-84
2021/09/17 10:34:58;;;;;;;6.22;2.83;;;27.60;50.40;;;;;;6250139;28;20433;-82
2021/09/17 10:38:26;;;;;;;3.22;2.22;;;27.70;50.60;;;;;;6228336;28;20412;-83
2021/09/17 10:41:27;;;;;;;4.80;3.67;;;27.70;50.40;;;;;;6268452;28;20033;-81
2021/09/17 10:44:28;;;;;;;3.20;2.60;;;27.70;50.00;;;;;;6261207;28;20362;-81
2021/09/17 10:47:41;;;;;;;4.35;2.70;;;27.80;49.90;;;;;;6250052;28;20040;-81
2021/09/17 10:50:55;;;;;;;4.35;2.80;;;27.90;49.60;;;;;;6252152;28;20029;-80
2021/09/17 10:53:58;;;;;;;2.95;2.25;;;28.00;49.20;;;;;;6266243;28;20040;-79
2021/09/17 10:57:05;;;;;;;3.42;2.35;;;28.10;49.00;;;;;;6269419;28;20052;-81
2021/09/17 11:00:07;;;;;;;4.10;2.67;;;28.20;48.70;;;;;;6268436;28;20443;-82
2021/09/17 11:03:08;;;;;;;5.07;2.08;;;28.30;48.60;;;;;;6257332;28;20079;-80
2021/09/17 11:06:22;;;;;;;3.08;2.33;;;28.60;48.20;;;;;;6259777;28;20025;-80
2021/09/17 11:09:48;;;;;;;5.30;2.95;;;28.80;47.40;;;;;;6268192;28;20098;-84
2021/09/17 11:12:49;;;;;;;3.97;2.58;;;28.80;47.00;;;;;;6251411;28;20037;-81
2021/09/17 11:15:50;;;;;;;6.45;2.22;;;28.90;46.90;;;;;;6259291;28;20454;-81
2021/09/17 11:19:00;;;;;;;3.78;2.30;;;28.90;46.70;;;;;;6247817;28;20033;-81
2021/09/17 11:22:01;;;;;;;6.00;2.58;;;28.80;46.70;;;;;;6251841;28;20037;-80
2021/09/17 11:25:05;;;;;;;3.33;2.22;;;28.60;46.70;;;;;;6242191;28;20033;-81
2021/09/17 11:28:32;;;;;;;3.88;1.90;;;28.40;46.30;;;;;;6262680;28;20045;-81
2021/09/17 11:31:37;;;;;;;4.10;1.92;;;28.30;46.80;;;;;;6242643;28;20437;-81
2021/09/17 11:34:37;;;;;;;3.50;2.15;;;28.30;46.90;;;;;;6231083;28;20485;-81
2021/09/17 11:37:46;;;;;;;4.43;2.10;;;28.20;46.80;;;;;;6236637;28;20025;-81
2021/09/17 11:40:53;;;;;;;3.85;1.92;;;28.10;46.90;;;;;;6245172;28;20109;-80
2021/09/17 11:43:54;;;;;;;3.63;2.33;;;28.00;46.80;;;;;;6257978;28;20029;-81
2021/09/17 11:46:56;;;;;;;3.80;2.28;;;27.90;46.90;;;;;;6255180;28;20565;-81
2021/09/17 11:49:59;;;;;;;3.95;2.58;;;27.70;46.80;;;;;;6246098;28;20354;-81
2021/09/17 11:53:00;;;;;;;3.90;2.40;;;27.60;46.80;;;;;;6247210;28;20041;-80
2021/09/17 11:56:07;;;;;;;3.92;2.30;;;27.50;47.00;;;;;;6267212;28;20037;-81
2021/09/17 11:59:08;;;;;;;3.80;2.30;;;27.40;47.10;;;;;;6253670;28;20025;-81
2021/09/17 12:02:29;;;;;;;2.90;2.08;;;27.40;47.20;;;;;;6250781;28;20335;-80
2021/09/17 12:05:33;;;;;;;3.10;2.03;;;27.30;47.30;;;;;;6245542;28;20025;-80
2021/09/17 12:08:34;;;;;;;3.78;2.15;;;27.30;47.10;;;;;;6248472;28;20029;-80
2021/09/17 12:11:35;;;;;;;3.75;2.25;;;27.30;47.20;;;;;;6247641;28;20118;-81
2021/09/17 12:14:37;;;;;;;3.15;2.17;;;27.30;47.10;;;;;;6247828;28;20202;-79
2021/09/17 12:18:01;;;;;;;3.38;1.92;;;27.30;47.00;;;;;;6222017;28;20060;-79
2021/09/17 12:21:04;;;;;;;4.10;2.28;;;27.30;47.10;;;;;;6192128;28;20034;-81
2021/09/17 12:24:26;;;;;;;4.18;1.90;;;27.40;46.90;;;;;;6211204;28;20038;-80
2021/09/17 12:27:34;;;;;;;5.30;2.05;;;27.40;46.90;;;;;;6226254;28;20041;-80
2021/09/17 12:30:39;;;;;;;3.08;2.20;;;27.50;46.50;;;;;;6201067;28;20034;-81
2021/09/17 12:33:40;;;;;;;4.30;2.05;;;27.60;46.40;;;;;;6207146;28;20383;-81
2021/09/17 12:36:55;;;;;;;4.15;2.25;;;27.70;46.20;;;;;;6201902;28;20025;-81
2021/09/17 12:40:13;;;;;;;4.85;2.25;;;27.90;46.00;;;;;;6239987;28;20187;-80
2021/09/17 12:43:23;;;;;;;4.22;2.63;;;28.00;45.70;;;;;;6233749;28;20025;-82
2021/09/17 12:46:33;;;;;;;3.67;2.20;;;28.10;45.50;;;;;;6217532;28;20117;-82
2021/09/17 12:49:34;;;;;;;7.15;2.22;;;28.30;45.30;;;;;;6210977;28;20025;-81
2021/09/17 12:52:47;;;;;;;5.55;2.20;;;28.40;45.00;;;;;;6210624;28;20045;-80
2021/09/17 12:56:20;;;;;;;2.63;1.95;;;28.50;44.80;;;;;;6243101;28;20040;-81
2021/09/17 12:59:21;;;;;;;2.80;1.90;;;28.60;44.70;;;;;;6194553;28;20035;-83
2021/09/17 13:02:22;;;;;;;2.55;1.92;;;28.80;44.50;;;;;;6178541;28;20450;-81
2021/09/17 13:05:29;;;;;;;7.43;2.20;;;28.90;44.10;;;;;;6160600;28;20037;-81
2021/09/17 13:08:31;;;;;;;3.20;2.15;;;29.10;43.80;;;;;;6198293;28;20034;-81
2021/09/17 13:11:32;;;;;;;3.55;2.20;;;29.20;43.40;;;;;;6217885;28;20347;-81
2021/09/17 13:14:33;;;;;;;7.22;2.22;;;29.30;43.30;;;;;;6186118;28;20038;-81
2021/09/17 13:17:34;;;;;;;7.07;2.10;;;29.30;43.20;;;;;;6182422;28;20026;-82
2021/09/17 13:20:38;;;;;;;5.00;2.20;;;29.40;43.00;;;;;;6191572;28;20100;-82
2021/09/17 13:23:39;;;;;;;3.60;2.38;;;29.80;42.70;;;;;;6171865;28;20037;-81
2021/09/17 13:26:40;;;;;;;4.30;2.08;;;30.40;41.70;;;;;;6196306;28;20022;-81
2021/09/17 13:29:41;;;;;;;4.70;2.80;;;31.30;40.30;;;;;;6206352;28;20404;-82
2021/09/17 13:32:42;;;;;;;2.67;2.30;;;32.30;38.90;;;;;;6179529;28;20213;-81
2021/09/17 13:35:46;;;;;;;4.82;2.35;;;32.40;38.10;;;;;;6241881;28;20030;-82
2021/09/17 13:38:47;;;;;;;5.22;2.28;;;32.20;38.10;;;;;;6251126;28;20044;-82
2021/09/17 13:41:48;;;;;;;2.53;1.83;;;32.10;38.50;;;;;;6264299;28;20319;-82
2021/09/17 13:44:50;;;;;;;3.05;2.10;;;31.90;38.70;;;;;;6275342;28;20135;-82
2021/09/17 13:47:52;;;;;;;3.20;1.98;;;31.60;39.10;;;;;;6274016;28;20029;-82
2021/09/17 13:50:52;;;;;;;3.28;2.08;;;31.40;39.30;;;;;;6244371;28;20063;-82
2021/09/17 13:53:53;;;;;;;4.15;2.40;;;31.30;39.10;;;;;;6262952;28;20120;-82
2021/09/17 13:56:54;;;;;;;7.15;2.30;;;31.10;39.00;;;;;;6273903;28;20354;-82
2021/09/17 13:59:58;;;;;;;2.63;1.90;;;31.00;39.00;;;;;;6256156;28;20048;-82
2021/09/17 14:03:00;;;;;;;3.10;1.70;;;30.90;39.00;;;;;;6264646;28;20041;-81
2021/09/17 14:06:00;;;;;;;4.68;2.03;;;30.80;39.10;;;;;;6258351;28;20124;-81
2021/09/17 14:09:02;;;;;;;4.57;2.05;;;30.70;39.10;;;;;;6255780;28;20048;-79
2021/09/17 14:12:04;;;;;;;2.05;1.85;;;30.50;39.10;;;;;;6232880;28;20175;-80
2021/09/17 14:15:06;;;;;;;6.50;2.45;;;30.40;39.30;;;;;;6249466;28;20045;-79
2021/09/17 14:18:07;;;;;;;3.63;2.10;;;30.20;39.60;;;;;;6253083;28;20032;-79
2021/09/17 14:21:08;;;;;;;3.92;2.50;;;30.00;40.10;;;;;;6273258;28;20395;-79
2021/09/17 14:24:11;;;;;;;3.28;2.28;;;29.80;40.40;;;;;;6273835;28;20053;-80
2021/09/17 14:27:12;;;;;;;3.65;1.70;;;29.70;40.50;;;;;;6273441;28;20032;-78
2021/09/17 14:30:13;;;;;;;2.53;2.08;;;29.70;40.60;;;;;;6274699;28;20040;-78
2021/09/17 14:33:14;;;;;;;2.45;1.70;;;29.60;40.60;;;;;;6257488;28;20044;-78
2021/09/17 14:36:15;;;;;;;2.47;1.98;;;29.50;40.60;;;;;;6271155;28;20025;-78
2021/09/17 14:39:18;;;;;;;3.28;2.05;;;29.50;40.90;;;;;;6241977;28;20044;-77
2021/09/17 14:42:19;;;;;;;6.05;1.70;;;29.40;40.60;;;;;;6232082;28;20057;-78
2021/09/17 14:45:20;;;;;;;2.63;2.00;;;29.40;40.50;;;;;;6265297;28;20055;-79
2021/09/17 14:48:21;;;;;;;3.00;1.80;;;29.30;40.70;;;;;;6272948;28;20330;-78
2021/09/17 14:51:23;;;;;;;2.55;1.80;;;29.20;40.80;;;;;;6250237;28;20037;-78
2021/09/17 14:54:24;;;;;;;1.77;1.58;;;29.10;41.00;;;;;;6271143;28;20051;-78
2021/09/17 14:57:26;;;;;;;2.95;1.85;;;29.00;41.20;;;;;;6236515;28;20307;-77
2021/09/17 15:00:27;;;;;;;5.72;2.20;;;29.00;41.30;;;;;;6242754;28;20021;-78
2021/09/17 15:03:28;;;;;;;3.78;1.80;;;28.90;41.30;;;;;;6235350;28;20057;-79
2021/09/17 15:06:29;;;;;;;3.85;1.80;;;28.80;41.50;;;;;;6261944;28;20363;-77
2021/09/17 15:09:30;;;;;;;3.10;2.00;;;28.70;41.60;;;;;;6254702;28;20079;-78
2021/09/17 15:12:32;;;;;;;2.40;1.80;;;28.70;41.80;;;;;;6248378;28;20036;-78
2021/09/17 15:15:33;;;;;;;3.28;1.83;;;28.70;41.80;;;;;;6248518;28;20403;-76
2021/09/17 15:18:34;;;;;;;3.53;2.17;;;28.70;41.80;;;;;;6283807;28;20033;-77
2021/09/17 15:21:35;;;;;;;2.97;1.80;;;28.70;41.80;;;;;;6289852;28;20043;-76
2021/09/17 15:24:36;;;;;;;2.63;1.95;;;28.80;41.90;;;;;;6273774;28;20029;-77
2021/09/17 15:27:37;;;;;;;4.97;1.90;;;28.80;41.80;;;;;;6254167;28;20048;-78
2021/09/17 15:30:38;;;;;;;4.22;1.77;;;28.80;41.80;;;;;;6264494;28;20033;-78
2021/09/17 15:33:40;;;;;;;2.65;1.80;;;28.70;41.80;;;;;;6228882;28;20087;-78
2021/09/17 15:36:41;;;;;;;2.33;1.80;;;28.70;41.90;;;;;;6238155;28;20121;-78
2021/09/17 15:39:42;;;;;;;5.25;2.00;;;28.70;41.80;;;;;;6236419;28;20026;-78
2021/09/17 15:42:43;;;;;;;3.63;1.80;;;28.70;41.90;;;;;;6240330;28;20046;-78
2021/09/17 15:45:44;;;;;;;2.95;1.85;;;28.70;41.80;;;;;;6232201;28;20041;-77